Time;durP1;ratioP1;P1;durP2;ratioP2;P2;SDS_P1;SDS_P2;PMS_P1;PMS_P2;Temp;Humidity;BMP_temperature;BMP_pressure;BME280_temperature;BME280_humidity;BME280_pressure;Samples;Min_cycle;Max_cycle;Signal;HPM_P1;HPM_P2
2021/11/21 00:01:47;;;;;;;1.50;1.15;;;22.60;53.80;;;;;;5033275;28;20497;-59
2021/11/21 00:04:13;;;;;;;1.98;1.40;;;22.60;53.80;;;;;;5029989;28;20043;-60
2021/11/21 00:06:38;;;;;;;3.03;1.60;;;22.60;53.80;;;;;;5037029;28;20029;-56
2021/11/21 00:09:04;;;;;;;2.65;1.40;;;22.60;53.70;;;;;;5037477;28;20028;-58
2021/11/21 00:11:30;;;;;;;2.05;1.50;;;22.60;53.70;;;;;;5033750;28;20060;-58
2021/11/21 00:13:56;;;;;;;2.25;1.50;;;22.60;53.70;;;;;;5040522;28;20445;-59
2021/11/21 00:16:21;;;;;;;2.45;1.60;;;22.60;53.70;;;;;;5042281;28;20079;-57
2021/11/21 00:18:47;;;;;;;2.58;1.40;;;22.60;54.20;;;;;;5042032;28;20110;-59
2021/11/21 00:21:13;;;;;;;2.47;1.30;;;22.60;53.60;;;;;;5040267;28;20570;-59
2021/11/21 00:23:39;;;;;;;1.90;1.40;;;22.60;53.60;;;;;;5039545;28;20790;-57
2021/11/21 00:26:04;;;;;;;1.77;1.40;;;22.60;53.60;;;;;;5041412;28;20017;-58
2021/11/21 00:28:30;;;;;;;2.72;1.58;;;22.60;53.60;;;;;;5040470;28;20029;-60
2021/11/21 00:30:56;;;;;;;1.83;1.30;;;22.60;53.60;;;;;;5037457;28;20041;-57
2021/11/21 00:33:22;;;;;;;2.63;1.33;;;22.60;53.60;;;;;;5034890;28;20095;-57
2021/11/21 00:35:47;;;;;;;1.58;1.10;;;22.60;53.60;;;;;;5033706;28;20112;-59
2021/11/21 00:38:13;;;;;;;1.85;1.23;;;22.60;53.60;;;;;;5035976;28;20115;-59
2021/11/21 00:40:39;;;;;;;1.95;1.30;;;22.60;53.50;;;;;;5031872;28;20080;-57
2021/11/21 00:43:05;;;;;;;2.08;1.40;;;22.60;53.50;;;;;;5038395;28;20060;-58
2021/11/21 00:45:31;;;;;;;3.28;1.38;;;22.60;53.60;;;;;;5033348;28;20029;-59
2021/11/21 00:47:58;;;;;;;2.05;1.38;;;22.60;53.60;;;;;;5038228;28;20046;-60
2021/11/21 00:50:28;;;;;;;2.03;1.33;;;22.50;53.60;;;;;;5030243;28;20541;-57
2021/11/21 00:53:00;;;;;;;1.98;1.30;;;22.50;53.60;;;;;;5035495;28;20043;-57
2021/11/21 00:55:42;;;;;;;2.42;1.38;;;22.50;53.60;;;;;;5028747;28;20558;-58
2021/11/21 00:58:11;;;;;;;2.83;1.30;;;22.50;53.50;;;;;;5035989;28;20214;-60
2021/11/21 01:00:40;;;;;;;1.80;1.27;;;22.50;53.60;;;;;;5036574;28;20103;-58
2021/11/21 01:03:07;;;;;;;1.98;1.27;;;22.50;53.70;;;;;;5034807;28;20025;-57
2021/11/21 01:05:33;;;;;;;2.03;1.30;;;22.40;53.60;;;;;;5034907;28;20021;-58
2021/11/21 01:07:59;;;;;;;2.35;1.33;;;22.40;53.60;;;;;;5036934;28;20473;-56
2021/11/21 01:10:25;;;;;;;2.13;1.45;;;22.40;53.60;;;;;;5033312;28;20034;-61
2021/11/21 01:12:53;;;;;;;1.75;1.38;;;22.40;53.60;;;;;;5033878;28;20438;-60
2021/11/21 01:15:22;;;;;;;2.38;1.40;;;22.40;53.60;;;;;;5038891;28;20367;-53
2021/11/21 01:17:49;;;;;;;1.98;1.40;;;22.40;53.60;;;;;;5040356;28;20168;-59
2021/11/21 01:20:16;;;;;;;2.30;1.60;;;22.30;53.50;;;;;;5038002;28;20254;-60
2021/11/21 01:22:44;;;;;;;2.15;1.30;;;22.30;53.60;;;;;;5040667;28;20057;-59
2021/11/21 01:25:12;;;;;;;1.60;1.20;;;22.30;53.60;;;;;;5035399;28;20026;-60
2021/11/21 01:27:39;;;;;;;1.98;1.38;;;22.30;53.60;;;;;;5036349;28;20036;-55
2021/11/21 01:30:08;;;;;;;1.98;1.27;;;22.30;53.60;;;;;;5035822;28;20464;-58
2021/11/21 01:32:34;;;;;;;1.85;1.33;;;22.30;53.50;;;;;;5034061;28;20405;-58
2021/11/21 01:35:04;;;;;;;1.90;1.30;;;22.30;53.60;;;;;;5034718;28;20040;-58
2021/11/21 01:37:30;;;;;;;1.77;1.20;;;22.20;53.50;;;;;;5034495;28;20388;-58
2021/11/21 01:39:55;;;;;;;2.00;1.30;;;22.20;53.50;;;;;;5030847;28;20026;-60
2021/11/21 01:42:22;;;;;;;1.75;1.20;;;22.20;53.60;;;;;;5032658;28;20033;-57
2021/11/21 01:44:51;;;;;;;1.63;1.30;;;22.20;53.50;;;;;;5035571;28;20101;-61
2021/11/21 01:47:17;;;;;;;1.90;1.38;;;22.20;53.50;;;;;;5037055;28;20111;-58
2021/11/21 01:49:43;;;;;;;1.77;1.20;;;22.10;53.40;;;;;;5034989;28;20041;-60
2021/11/21 01:52:09;;;;;;;1.92;1.10;;;22.10;53.50;;;;;;5035214;28;20456;-60
2021/11/21 01:54:38;;;;;;;1.83;1.40;;;22.20;53.50;;;;;;5038454;28;20040;-57
2021/11/21 01:57:03;;;;;;;1.73;1.27;;;22.10;53.50;;;;;;5039744;28;20703;-57
2021/11/21 01:59:34;;;;;;;2.17;1.40;;;22.10;53.50;;;;;;5034368;28;20041;-56
2021/11/21 02:01:59;;;;;;;1.77;1.25;;;22.10;53.50;;;;;;5030191;28;20038;-59
2021/11/21 02:04:25;;;;;;;2.03;1.27;;;22.10;53.50;;;;;;5028239;28;20618;-59
2021/11/21 02:06:51;;;;;;;2.08;1.40;;;22.00;53.50;;;;;;5034065;28;20077;-58
2021/11/21 02:09:16;;;;;;;1.77;1.27;;;22.00;53.50;;;;;;5029182;28;20022;-58
2021/11/21 02:11:42;;;;;;;1.52;1.20;;;22.00;53.50;;;;;;5034606;28;20103;-59
2021/11/21 02:14:07;;;;;;;1.65;1.33;;;22.00;53.50;;;;;;5037156;28;20029;-61
2021/11/21 02:16:33;;;;;;;2.58;1.40;;;22.00;53.50;;;;;;5034509;28;20078;-60
2021/11/21 02:19:00;;;;;;;2.30;1.40;;;22.00;53.50;;;;;;5035929;28;20081;-58
2021/11/21 02:21:26;;;;;;;1.73;1.10;;;21.90;53.50;;;;;;5035752;28;20033;-59
2021/11/21 02:23:52;;;;;;;1.73;1.30;;;22.00;53.50;;;;;;5029146;28;20041;-59
2021/11/21 02:26:18;;;;;;;1.95;1.23;;;21.90;53.50;;;;;;5036152;28;20415;-56
2021/11/21 02:28:46;;;;;;;2.28;1.30;;;21.90;53.50;;;;;;5031950;28;20072;-58
2021/11/21 02:31:14;;;;;;;2.33;1.20;;;21.90;53.50;;;;;;5036244;28;20041;-59
2021/11/21 02:33:42;;;;;;;1.42;1.08;;;21.90;53.50;;;;;;5032019;28;20029;-59
2021/11/21 02:36:08;;;;;;;1.63;1.17;;;21.90;53.50;;;;;;5032616;28;20069;-59
2021/11/21 02:38:36;;;;;;;1.60;1.27;;;21.90;53.50;;;;;;5033643;28;20132;-61
2021/11/21 02:41:05;;;;;;;1.85;1.30;;;21.80;53.50;;;;;;5032634;28;20033;-59
2021/11/21 02:43:32;;;;;;;1.85;1.20;;;21.80;53.50;;;;;;5037260;28;20042;-59
2021/11/21 02:45:58;;;;;;;1.70;1.10;;;21.80;53.50;;;;;;5032173;28;20040;-59
2021/11/21 02:48:28;;;;;;;1.90;1.20;;;21.80;53.50;;;;;;5032985;28;20489;-59
2021/11/21 02:50:55;;;;;;;1.88;1.35;;;21.80;53.50;;;;;;5029909;28;20474;-59
2021/11/21 02:53:25;;;;;;;1.95;1.20;;;21.80;53.50;;;;;;5034180;28;20104;-59
2021/11/21 02:55:53;;;;;;;1.75;1.30;;;21.80;53.50;;;;;;5034555;28;20026;-60
2021/11/21 02:58:19;;;;;;;1.65;1.20;;;21.70;53.50;;;;;;5033903;28;20022;-60
2021/11/21 03:00:45;;;;;;;1.73;1.20;;;21.70;53.50;;;;;;5030951;28;20063;-60
2021/11/21 03:03:13;;;;;;;1.73;1.20;;;21.70;53.60;;;;;;5032315;28;20068;-59
2021/11/21 03:05:39;;;;;;;2.47;1.10;;;21.70;53.60;;;;;;5033184;28;20035;-59
2021/11/21 03:08:04;;;;;;;1.75;1.20;;;21.70;53.60;;;;;;5033170;28;20025;-57
2021/11/21 03:10:31;;;;;;;2.67;1.20;;;21.60;53.60;;;;;;5033278;28;20029;-60
2021/11/21 03:12:59;;;;;;;2.00;1.38;;;21.60;53.60;;;;;;5034836;28;20492;-58
2021/11/21 03:15:26;;;;;;;1.73;1.23;;;21.60;53.60;;;;;;5033414;28;20136;-60
2021/11/21 03:17:52;;;;;;;1.70;1.30;;;21.60;53.60;;;;;;5039876;28;20827;-59
2021/11/21 03:20:21;;;;;;;2.13;1.20;;;21.60;53.70;;;;;;5029822;28;20063;-55
2021/11/21 03:22:48;;;;;;;1.13;1.00;;;21.60;53.70;;;;;;5032574;28;20054;-59
2021/11/21 03:25:14;;;;;;;1.52;1.10;;;21.50;53.60;;;;;;5031090;28;20029;-59
2021/11/21 03:27:41;;;;;;;1.52;1.20;;;21.50;53.70;;;;;;5031123;28;20391;-60
2021/11/21 03:30:08;;;;;;;1.90;1.17;;;21.60;53.70;;;;;;5035029;28;20051;-57
2021/11/21 03:32:34;;;;;;;1.90;1.10;;;21.50;53.70;;;;;;5034338;28;20523;-59
2021/11/21 03:35:00;;;;;;;1.45;1.10;;;21.50;53.70;;;;;;5032975;28;20100;-59
2021/11/21 03:37:26;;;;;;;1.98;1.30;;;21.50;53.70;;;;;;5035826;28;20049;-59
2021/11/21 03:39:51;;;;;;;1.60;1.10;;;21.50;53.70;;;;;;5031929;28;20029;-60
2021/11/21 03:42:18;;;;;;;1.67;1.23;;;21.50;53.70;;;;;;5030532;28;20033;-57
2021/11/21 03:44:44;;;;;;;1.55;1.10;;;21.50;53.70;;;;;;5034187;28;20141;-53
2021/11/21 03:47:10;;;;;;;1.65;1.20;;;21.40;53.70;;;;;;5033090;28;20037;-59
2021/11/21 03:49:35;;;;;;;1.65;1.10;;;21.40;53.70;;;;;;5033910;28;20053;-59
2021/11/21 03:52:02;;;;;;;1.83;1.30;;;21.40;53.70;;;;;;5026979;28;20091;-58
2021/11/21 03:54:28;;;;;;;1.88;1.30;;;21.40;53.70;;;;;;5030154;28;20133;-60
2021/11/21 03:56:54;;;;;;;2.10;1.10;;;21.40;53.70;;;;;;5033468;28;20112;-58
2021/11/21 03:59:20;;;;;;;1.45;1.10;;;21.40;53.80;;;;;;5027716;28;20091;-59
2021/11/21 04:01:46;;;;;;;1.88;1.30;;;21.30;53.70;;;;;;5030640;28;20048;-59
2021/11/21 04:04:12;;;;;;;1.58;1.00;;;21.30;53.80;;;;;;5035284;28;20036;-60
2021/11/21 04:06:38;;;;;;;1.77;1.30;;;21.40;53.80;;;;;;5032420;28;20060;-56
2021/11/21 04:09:04;;;;;;;1.52;1.20;;;21.30;53.80;;;;;;5033804;28;20064;-57
2021/11/21 04:11:30;;;;;;;2.03;1.20;;;21.30;53.80;;;;;;5030346;28;20095;-57
2021/11/21 04:13:57;;;;;;;1.50;1.10;;;21.30;53.80;;;;;;5031943;28;20129;-58
2021/11/21 04:16:22;;;;;;;1.83;1.30;;;21.30;53.80;;;;;;5032732;28;20033;-58
2021/11/21 04:18:48;;;;;;;1.80;1.23;;;21.30;53.80;;;;;;5029223;28;20544;-58
2021/11/21 04:21:14;;;;;;;1.50;1.20;;;21.30;53.80;;;;;;5034269;28;20026;-59
2021/11/21 04:23:40;;;;;;;1.80;1.20;;;21.30;53.80;;;;;;5030132;28;20034;-57
2021/11/21 04:26:05;;;;;;;1.38;1.10;;;21.30;53.80;;;;;;5030761;28;20121;-57
2021/11/21 04:28:31;;;;;;;1.50;1.10;;;21.30;53.80;;;;;;5030214;28;20048;-58
2021/11/21 04:30:56;;;;;;;1.25;1.00;;;21.20;53.90;;;;;;5030075;28;20053;-59
2021/11/21 04:33:23;;;;;;;1.48;1.10;;;21.30;53.80;;;;;;5034572;28;20033;-56
2021/11/21 04:35:50;;;;;;;1.27;1.00;;;21.20;53.80;;;;;;5033714;28;20071;-55
2021/11/21 04:38:16;;;;;;;1.90;1.10;;;21.20;53.80;;;;;;5036748;28;20037;-57
2021/11/21 04:40:42;;;;;;;3.03;1.60;;;21.20;53.80;;;;;;5035248;28;20526;-58
2021/11/21 04:43:08;;;;;;;1.33;1.00;;;21.20;53.80;;;;;;5040071;28;20081;-57
2021/11/21 04:45:34;;;;;;;1.60;1.23;;;21.20;53.80;;;;;;5035479;28;20041;-56
2021/11/21 04:48:00;;;;;;;1.63;1.15;;;21.20;53.90;;;;;;5036741;28;20063;-58
2021/11/21 04:50:26;;;;;;;1.70;1.15;;;21.20;53.90;;;;;;5040014;28;20079;-55
2021/11/21 04:52:51;;;;;;;1.33;1.10;;;21.20;53.90;;;;;;5042221;28;20033;-58
2021/11/21 04:55:17;;;;;;;1.55;1.00;;;21.20;53.90;;;;;;5027544;28;20036;-58
2021/11/21 04:57:43;;;;;;;1.55;1.05;;;21.20;53.90;;;;;;5035503;28;20109;-56
2021/11/21 05:00:17;;;;;;;1.52;1.10;;;21.20;53.90;;;;;;5033107;28;20541;-59
2021/11/21 05:02:47;;;;;;;1.38;1.00;;;21.10;53.80;;;;;;5036039;28;20037;-58
2021/11/21 05:05:15;;;;;;;1.70;1.10;;;21.10;53.90;;;;;;5035629;28;20330;-57
2021/11/21 05:07:41;;;;;;;1.35;0.98;;;21.10;53.90;;;;;;5038437;28;20041;-58
2021/11/21 05:10:08;;;;;;;1.40;1.02;;;21.10;53.90;;;;;;5033977;28;20036;-58
2021/11/21 05:12:34;;;;;;;1.45;1.15;;;21.10;53.90;;;;;;5034020;28;20091;-53
2021/11/21 05:15:01;;;;;;;1.42;1.00;;;21.10;53.90;;;;;;5031934;28;20022;-59
2021/11/21 05:17:27;;;;;;;1.30;1.00;;;21.10;53.90;;;;;;5039290;28;20075;-59
2021/11/21 05:19:53;;;;;;;1.35;1.00;;;21.10;53.90;;;;;;5034493;28;20029;-58
2021/11/21 05:22:19;;;;;;;1.65;1.20;;;21.10;54.40;;;;;;5035599;28;20064;-59
2021/11/21 05:24:45;;;;;;;1.35;1.00;;;21.10;53.90;;;;;;5032838;28;20028;-56
2021/11/21 05:27:11;;;;;;;1.33;1.10;;;21.10;53.90;;;;;;5035919;28;20095;-58
2021/11/21 05:29:36;;;;;;;1.65;1.00;;;21.10;53.90;;;;;;5035764;28;20112;-59
2021/11/21 05:32:03;;;;;;;1.40;1.02;;;21.10;54.40;;;;;;5035438;28;20036;-56
2021/11/21 05:34:28;;;;;;;1.10;0.95;;;21.10;54.00;;;;;;5035999;28;20036;-59
2021/11/21 05:36:54;;;;;;;1.60;1.10;;;21.10;53.90;;;;;;5034028;28;20036;-56
2021/11/21 05:39:20;;;;;;;1.40;1.02;;;21.10;53.90;;;;;;5029595;28;20481;-58
2021/11/21 05:41:45;;;;;;;1.30;1.10;;;21.00;53.80;;;;;;5033567;28;20049;-60
2021/11/21 05:44:11;;;;;;;1.20;1.00;;;21.00;53.90;;;;;;5036447;28;20476;-57
2021/11/21 05:46:37;;;;;;;1.10;0.90;;;21.00;54.40;;;;;;5034877;28;20091;-58
2021/11/21 05:49:03;;;;;;;1.50;1.00;;;21.00;53.90;;;;;;5038302;28;20033;-58
2021/11/21 05:51:28;;;;;;;1.00;0.90;;;21.00;53.90;;;;;;5032671;28;20033;-56
2021/11/21 05:53:54;;;;;;;1.05;0.90;;;21.00;53.90;;;;;;5035430;28;20099;-58
2021/11/21 05:56:20;;;;;;;1.08;0.90;;;21.00;53.90;;;;;;5032382;28;20031;-57
2021/11/21 05:58:49;;;;;;;1.00;0.80;;;21.00;53.90;;;;;;5039406;28;20037;-59
2021/11/21 06:01:15;;;;;;;1.05;0.95;;;21.00;53.90;;;;;;5032731;28;20124;-59
2021/11/21 06:03:41;;;;;;;1.10;0.90;;;21.00;53.90;;;;;;5033782;28;20465;-57
2021/11/21 06:06:07;;;;;;;1.25;1.00;;;21.00;53.90;;;;;;5031868;28;20026;-53
2021/11/21 06:08:33;;;;;;;1.08;0.90;;;21.00;53.90;;;;;;5034122;28;20033;-58
2021/11/21 06:10:59;;;;;;;1.20;0.90;;;21.00;53.90;;;;;;5031428;28;20064;-59
2021/11/21 06:13:27;;;;;;;1.48;1.00;;;21.00;53.90;;;;;;5040711;28;20059;-59
2021/11/21 06:15:53;;;;;;;1.02;0.88;;;21.00;53.90;;;;;;5034060;28;20029;-57
2021/11/21 06:18:18;;;;;;;1.05;0.90;;;21.00;53.90;;;;;;5034737;28;20082;-58
2021/11/21 06:20:44;;;;;;;1.00;0.90;;;21.00;53.90;;;;;;5032963;28;20040;-59
2021/11/21 06:23:11;;;;;;;1.00;0.85;;;21.00;53.90;;;;;;5034605;28;20037;-59
2021/11/21 06:25:37;;;;;;;1.20;0.90;;;21.00;53.90;;;;;;5030272;28;20041;-59
2021/11/21 06:28:03;;;;;;;1.58;1.10;;;20.90;53.80;;;;;;5036085;28;20112;-58
2021/11/21 06:30:29;;;;;;;1.25;0.90;;;20.90;53.90;;;;;;5037826;28;20069;-58
2021/11/21 06:32:55;;;;;;;1.00;0.90;;;20.90;53.90;;;;;;5035114;28;20033;-59
2021/11/21 06:35:20;;;;;;;1.13;0.85;;;20.90;53.90;;;;;;5036155;28;20041;-58
2021/11/21 06:37:46;;;;;;;1.20;1.00;;;20.90;53.90;;;;;;5051025;28;20116;-54
2021/11/21 06:40:14;;;;;;;1.20;0.90;;;20.90;53.90;;;;;;5030875;28;20112;-58
2021/11/21 06:42:42;;;;;;;1.10;0.90;;;20.90;53.90;;;;;;5036551;28;20029;-58
2021/11/21 06:45:08;;;;;;;0.98;0.80;;;20.90;53.90;;;;;;5032120;28;20036;-54
2021/11/21 06:47:34;;;;;;;0.75;0.75;;;20.90;53.90;;;;;;5037322;28;20453;-57
2021/11/21 06:50:01;;;;;;;0.98;0.82;;;20.90;53.90;;;;;;5033559;28;20037;-58
2021/11/21 06:52:30;;;;;;;0.95;0.85;;;20.90;54.00;;;;;;5032828;28;20032;-58
2021/11/21 06:54:55;;;;;;;1.23;0.90;;;20.90;53.90;;;;;;5032537;28;20669;-56
2021/11/21 06:57:21;;;;;;;1.00;0.90;;;20.90;53.90;;;;;;5033089;28;20048;-58
2021/11/21 06:59:48;;;;;;;1.20;0.80;;;20.90;54.00;;;;;;5031988;28;20064;-54
2021/11/21 07:02:14;;;;;;;1.00;0.90;;;20.90;54.00;;;;;;5035335;28;20508;-59
2021/11/21 07:04:40;;;;;;;0.82;0.80;;;20.90;53.90;;;;;;5036501;28;20039;-59
2021/11/21 07:07:09;;;;;;;1.50;1.00;;;20.90;53.90;;;;;;5034515;28;20034;-59
2021/11/21 07:09:35;;;;;;;;;;;20.90;53.90;;;;;;5029093;28;20021;-56
2021/11/21 07:12:01;;;;;;;1.10;0.88;;;20.80;53.90;;;;;;5034382;28;19970;-58
2021/11/21 07:14:27;;;;;;;0.90;0.80;;;20.90;54.00;;;;;;5032159;28;20536;-59
2021/11/21 07:16:52;;;;;;;0.90;0.77;;;20.90;54.00;;;;;;5033124;28;20028;-58
2021/11/21 07:19:18;;;;;;;0.95;0.75;;;20.90;54.00;;;;;;5030006;28;20120;-57
2021/11/21 07:21:44;;;;;;;0.80;0.80;;;20.80;53.90;;;;;;5031750;28;20099;-58
2021/11/21 07:24:11;;;;;;;1.20;0.90;;;20.80;53.90;;;;;;5031685;28;20037;-58
2021/11/21 07:26:36;;;;;;;0.75;0.70;;;20.80;53.90;;;;;;5036213;28;20040;-57
2021/11/21 07:29:04;;;;;;;1.08;0.95;;;20.90;54.00;;;;;;5031168;28;20698;-57
2021/11/21 07:31:30;;;;;;;0.90;0.80;;;20.80;53.90;;;;;;5036796;28;20055;-58
2021/11/21 07:33:56;;;;;;;1.23;0.95;;;20.80;53.90;;;;;;5029552;28;20037;-58
2021/11/21 07:36:22;;;;;;;1.20;1.00;;;20.80;54.00;;;;;;5034070;28;20033;-59
2021/11/21 07:38:48;;;;;;;1.33;0.90;;;20.80;54.00;;;;;;5028481;28;20044;-58
2021/11/21 07:41:14;;;;;;;1.10;0.90;;;20.80;54.00;;;;;;5035537;28;20128;-59
2021/11/21 07:43:40;;;;;;;1.00;0.90;;;20.80;54.00;;;;;;5037180;28;20477;-60
2021/11/21 07:46:06;;;;;;;1.00;0.80;;;20.80;54.00;;;;;;5032293;28;20057;-60
2021/11/21 07:48:31;;;;;;;1.25;0.90;;;20.80;54.00;;;;;;5035827;28;20132;-57
2021/11/21 07:50:57;;;;;;;1.30;0.80;;;20.80;54.00;;;;;;5035095;28;20105;-60
2021/11/21 07:53:23;;;;;;;1.50;1.00;;;20.80;54.00;;;;;;5031059;28;20022;-59
2021/11/21 07:55:49;;;;;;;1.00;0.90;;;20.80;54.00;;;;;;5027600;28;20159;-59
2021/11/21 07:58:15;;;;;;;1.67;1.00;;;20.80;54.00;;;;;;5031731;28;20037;-59
2021/11/21 08:00:41;;;;;;;1.25;0.88;;;20.80;54.00;;;;;;5029477;28;20535;-58
2021/11/21 08:03:06;;;;;;;1.17;0.90;;;20.80;54.00;;;;;;5033934;28;20457;-57
2021/11/21 08:05:32;;;;;;;0.88;0.80;;;20.80;54.00;;;;;;5034153;28;20082;-59
2021/11/21 08:07:58;;;;;;;1.25;0.93;;;20.80;54.00;;;;;;5032234;28;20092;-59
2021/11/21 08:10:23;;;;;;;1.38;1.00;;;20.80;53.90;;;;;;5025781;28;20029;-58
2021/11/21 08:12:49;;;;;;;1.05;0.80;;;20.80;54.00;;;;;;5031186;28;20132;-59
2021/11/21 08:15:15;;;;;;;1.15;0.90;;;20.80;54.00;;;;;;5036176;28;20021;-58
2021/11/21 08:17:40;;;;;;;1.00;0.80;;;20.80;54.00;;;;;;5028988;28;20108;-59
2021/11/21 08:20:07;;;;;;;1.42;1.10;;;20.80;54.00;;;;;;5033693;28;20110;-59
2021/11/21 08:22:32;;;;;;;1.25;0.90;;;20.70;53.90;;;;;;5032852;28;20037;-58
2021/11/21 08:24:58;;;;;;;1.30;0.90;;;20.70;53.90;;;;;;5028872;28;20480;-58
2021/11/21 08:27:24;;;;;;;1.60;1.08;;;20.70;54.40;;;;;;5032849;28;20022;-59
2021/11/21 08:29:50;;;;;;;1.48;1.10;;;20.80;54.00;;;;;;5030478;28;20024;-59
2021/11/21 08:32:17;;;;;;;1.02;0.90;;;20.70;53.90;;;;;;5029467;28;20132;-58
2021/11/21 08:34:44;;;;;;;1.30;1.00;;;20.70;53.90;;;;;;5035215;28;20048;-58
2021/11/21 08:37:10;;;;;;;1.42;0.85;;;20.70;53.90;;;;;;5026581;28;20117;-60
2021/11/21 08:39:36;;;;;;;0.93;0.70;;;20.70;53.80;;;;;;5028278;28;20125;-53
2021/11/21 08:42:02;;;;;;;1.48;0.90;;;20.80;53.90;;;;;;5027344;28;20842;-59
2021/11/21 08:44:28;;;;;;;1.25;1.00;;;20.70;53.80;;;;;;5029078;28;20438;-58
2021/11/21 08:46:53;;;;;;;1.95;1.08;;;20.70;53.90;;;;;;5033628;28;20021;-60
2021/11/21 08:49:19;;;;;;;2.42;1.10;;;20.70;53.80;;;;;;5029943;28;20025;-57
2021/11/21 08:51:45;;;;;;;1.08;0.93;;;20.70;53.90;;;;;;5037528;28;20508;-58
2021/11/21 08:54:12;;;;;;;1.27;0.90;;;20.70;53.90;;;;;;5031424;28;20120;-58
2021/11/21 08:56:38;;;;;;;1.40;0.93;;;20.70;53.90;;;;;;5029235;28;20029;-57
2021/11/21 08:59:04;;;;;;;1.30;1.10;;;20.70;53.80;;;;;;5032630;28;20025;-58
2021/11/21 09:01:30;;;;;;;1.20;0.93;;;20.70;53.80;;;;;;5027480;28;20067;-59
2021/11/21 09:03:56;;;;;;;1.20;0.82;;;20.70;53.80;;;;;;5028554;28;20347;-59
2021/11/21 09:06:22;;;;;;;1.73;0.90;;;20.70;53.80;;;;;;5033343;28;20096;-59
2021/11/21 09:08:48;;;;;;;1.08;0.98;;;20.70;53.90;;;;;;5037519;28;20037;-58
2021/11/21 09:11:14;;;;;;;2.10;0.88;;;20.70;53.80;;;;;;5034644;28;20044;-58
2021/11/21 09:13:39;;;;;;;0.88;0.80;;;20.70;53.80;;;;;;5032049;28;20067;-58
2021/11/21 09:16:05;;;;;;;1.40;1.00;;;20.70;53.90;;;;;;5028870;28;20033;-59
2021/11/21 09:18:31;;;;;;;1.13;0.90;;;20.70;53.80;;;;;;5035023;28;20150;-56
2021/11/21 09:20:58;;;;;;;1.27;0.90;;;20.70;53.80;;;;;;5034227;28;20040;-56
2021/11/21 09:23:26;;;;;;;1.17;1.00;;;20.70;53.80;;;;;;5042729;28;20915;-58
2021/11/21 09:25:53;;;;;;;1.42;0.90;;;20.70;53.90;;;;;;5043633;28;20047;-59
2021/11/21 09:28:26;;;;;;;1.02;0.80;;;20.60;53.80;;;;;;5036416;28;20809;-56
2021/11/21 09:30:56;;;;;;;1.20;1.00;;;20.60;53.80;;;;;;5033637;28;20133;-57
2021/11/21 09:33:23;;;;;;;1.38;0.90;;;20.60;53.80;;;;;;5038907;28;20060;-57
2021/11/21 09:35:49;;;;;;;1.23;0.90;;;20.60;53.80;;;;;;5035431;28;20388;-59
2021/11/21 09:38:16;;;;;;;1.13;0.90;;;20.60;53.90;;;;;;5040055;28;20053;-56
2021/11/21 09:40:41;;;;;;;1.00;0.80;;;20.60;53.80;;;;;;5046577;28;20033;-59
2021/11/21 09:43:07;;;;;;;1.60;0.85;;;20.60;53.90;;;;;;5039925;28;20469;-59
2021/11/21 09:45:34;;;;;;;1.02;0.80;;;20.60;53.90;;;;;;5037318;28;20122;-57
2021/11/21 09:48:01;;;;;;;1.40;1.00;;;20.60;53.80;;;;;;5031512;28;20033;-59
2021/11/21 09:50:29;;;;;;;0.98;0.88;;;20.60;53.90;;;;;;5035332;28;20013;-52
2021/11/21 09:52:55;;;;;;;1.17;0.82;;;20.60;53.90;;;;;;5033043;28;20419;-59
2021/11/21 09:55:22;;;;;;;1.42;0.90;;;20.60;53.90;;;;;;5030866;28;20029;-56
2021/11/21 09:57:49;;;;;;;1.15;0.90;;;20.60;53.90;;;;;;5042943;28;20049;-58
2021/11/21 10:00:17;;;;;;;1.40;0.93;;;20.60;53.90;;;;;;5035619;28;20478;-57
2021/11/21 10:02:46;;;;;;;1.15;0.95;;;20.60;54.00;;;;;;5031036;28;20697;-57
2021/11/21 10:05:22;;;;;;;1.33;0.85;;;20.60;53.90;;;;;;5029142;28;20036;-55
2021/11/21 10:07:48;;;;;;;1.50;0.93;;;20.60;54.00;;;;;;5037867;28;20044;-59
2021/11/21 10:10:17;;;;;;;1.50;1.00;;;20.60;53.90;;;;;;5036460;28;20033;-57
2021/11/21 10:12:43;;;;;;;1.30;1.00;;;20.60;54.00;;;;;;5032893;28;20129;-56
2021/11/21 10:15:14;;;;;;;1.27;0.80;;;20.60;54.00;;;;;;5028373;28;20398;-59
2021/11/21 10:17:46;;;;;;;1.67;1.00;;;20.60;54.00;;;;;;5037127;28;20024;-58
2021/11/21 10:20:22;;;;;;;0.98;0.80;;;20.60;54.00;;;;;;5043910;28;20033;-58
2021/11/21 10:22:56;;;;;;;0.95;0.80;;;20.60;54.00;;;;;;5029420;28;20037;-58
2021/11/21 10:25:40;;;;;;;1.20;0.80;;;20.60;54.00;;;;;;5027491;28;20725;-58
2021/11/21 10:28:18;;;;;;;1.10;0.90;;;20.60;54.00;;;;;;5038789;28;20021;-56
2021/11/21 10:31:14;;;;;;;1.98;0.95;;;20.60;54.00;;;;;;5030609;28;20041;-58
2021/11/21 10:33:55;;;;;;;2.55;1.00;;;20.60;54.00;;;;;;5034073;28;20048;-56
2021/11/21 10:36:25;;;;;;;0.88;0.82;;;20.60;54.00;;;;;;5034183;28;20389;-57
2021/11/21 10:38:50;;;;;;;0.82;0.82;;;20.60;54.10;;;;;;5037326;28;20063;-53
2021/11/21 10:41:29;;;;;;;0.80;0.80;;;20.60;54.10;;;;;;5030966;28;20067;-57
2021/11/21 10:44:02;;;;;;;1.00;0.80;;;20.60;54.10;;;;;;5027025;28;20627;-58
2021/11/21 10:46:39;;;;;;;1.25;0.90;;;20.50;54.10;;;;;;5031843;28;20055;-55
2021/11/21 10:49:21;;;;;;;2.22;0.95;;;20.50;54.10;;;;;;5030248;28;20025;-53
2021/11/21 10:51:58;;;;;;;1.17;1.00;;;20.60;54.10;;;;;;5030079;28;20055;-56
2021/11/21 10:54:34;;;;;;;1.02;0.85;;;20.50;54.10;;;;;;5029648;28;20507;-58
2021/11/21 10:57:07;;;;;;;1.38;1.05;;;20.60;54.10;;;;;;5033521;28;20766;-55
2021/11/21 10:59:36;;;;;;;1.48;0.90;;;20.50;54.10;;;;;;5033114;28;20123;-57
2021/11/21 11:02:09;;;;;;;1.17;0.75;;;20.50;54.10;;;;;;5034952;28;20045;-56
2021/11/21 11:04:34;;;;;;;1.30;0.98;;;20.50;54.10;;;;;;5034140;28;20026;-57
2021/11/21 11:07:15;;;;;;;1.27;0.90;;;20.50;54.10;;;;;;5033955;28;20074;-56
2021/11/21 11:09:43;;;;;;;1.20;0.88;;;20.50;54.10;;;;;;5035139;28;20120;-58
2021/11/21 11:12:09;;;;;;;1.17;0.93;;;20.50;54.10;;;;;;5038832;28;20035;-58
2021/11/21 11:14:35;;;;;;;1.13;0.90;;;20.50;54.10;;;;;;5033128;28;20104;-57
2021/11/21 11:17:00;;;;;;;0.85;0.82;;;20.50;54.10;;;;;;5032114;28;20120;-55
2021/11/21 11:19:28;;;;;;;2.35;0.90;;;20.50;54.10;;;;;;5034116;28;20036;-57
2021/11/21 11:21:54;;;;;;;1.33;0.90;;;20.50;54.20;;;;;;5036573;28;20048;-54
2021/11/21 11:24:22;;;;;;;1.20;0.82;;;20.50;54.10;;;;;;5035978;28;20037;-56
2021/11/21 11:27:01;;;;;;;1.75;1.10;;;20.50;54.60;;;;;;5040904;28;20114;-58
2021/11/21 11:29:34;;;;;;;1.40;1.00;;;20.50;54.20;;;;;;5036560;28;20041;-59
2021/11/21 11:32:22;;;;;;;2.05;1.20;;;20.50;54.20;;;;;;5031806;28;20037;-57
2021/11/21 11:34:48;;;;;;;1.70;1.10;;;20.50;54.20;;;;;;5028943;28;20025;-58
2021/11/21 11:37:23;;;;;;;2.22;1.10;;;20.50;54.20;;;;;;5037654;28;20044;-52
2021/11/21 11:39:49;;;;;;;1.88;1.20;;;20.50;54.20;;;;;;5030266;28;20037;-58
2021/11/21 11:42:35;;;;;;;2.08;1.20;;;20.50;54.10;;;;;;5038076;28;20028;-58
2021/11/21 11:45:04;;;;;;;2.22;1.10;;;20.50;54.20;;;;;;5028482;28;20825;-58
2021/11/21 11:47:30;;;;;;;2.40;1.10;;;20.50;54.20;;;;;;5030847;28;20104;-57
2021/11/21 11:49:56;;;;;;;2.47;1.20;;;20.50;54.20;;;;;;5034153;28;20033;-57
2021/11/21 11:52:51;;;;;;;2.35;0.90;;;20.50;54.20;;;;;;5034499;28;20036;-58
2021/11/21 11:55:18;;;;;;;1.98;1.15;;;20.50;54.20;;;;;;5028150;28;20029;-54
2021/11/21 11:57:45;;;;;;;1.58;1.00;;;20.50;54.20;;;;;;5031566;28;20147;-57
2021/11/21 12:00:26;;;;;;;1.60;1.10;;;20.50;54.20;;;;;;5033343;28;20077;-56
2021/11/21 12:02:55;;;;;;;2.67;1.20;;;20.50;54.20;;;;;;5032539;28;20446;-57
2021/11/21 12:05:29;;;;;;;2.20;1.27;;;20.50;54.20;;;;;;5032852;28;20024;-57
2021/11/21 12:08:11;;;;;;;2.05;1.20;;;20.50;54.20;;;;;;5028903;28;20032;-55
2021/11/21 12:10:44;;;;;;;2.08;1.10;;;20.50;54.20;;;;;;5031701;28;20068;-58
2021/11/21 12:13:10;;;;;;;1.83;1.20;;;20.50;54.20;;;;;;5031351;28;20028;-57
2021/11/21 12:15:50;;;;;;;1.95;1.23;;;20.50;54.20;;;;;;5027706;28;20041;-56
2021/11/21 12:18:16;;;;;;;1.92;1.10;;;20.50;54.20;;;;;;5031709;28;20025;-55
2021/11/21 12:20:55;;;;;;;2.35;1.20;;;20.50;54.20;;;;;;5030931;28;21589;-57
2021/11/21 12:23:42;;;;;;;1.63;1.00;;;20.50;54.20;;;;;;5031746;28;20097;-58
2021/11/21 12:26:21;;;;;;;2.33;1.27;;;20.40;54.20;;;;;;5030713;28;20045;-57
2021/11/21 12:29:18;;;;;;;2.45;1.20;;;20.40;54.20;;;;;;5028045;28;20231;-58
2021/11/21 12:31:47;;;;;;;2.00;1.10;;;20.50;54.30;;;;;;5028739;28;20559;-57
2021/11/21 12:34:27;;;;;;;2.22;1.17;;;20.40;54.20;;;;;;5028662;28;20108;-54
2021/11/21 12:37:20;;;;;;;1.80;1.15;;;20.50;54.20;;;;;;5026452;28;20113;-58
2021/11/21 12:39:56;;;;;;;2.13;1.02;;;20.50;54.30;;;;;;5031589;28;20063;-57
2021/11/21 12:42:28;;;;;;;1.48;1.02;;;20.50;54.30;;;;;;5034495;28;20029;-54
2021/11/21 12:45:15;;;;;;;2.10;1.10;;;20.40;54.30;;;;;;5032462;28;20691;-58
2021/11/21 12:47:44;;;;;;;2.03;1.20;;;20.40;54.20;;;;;;5037274;28;20665;-58
2021/11/21 12:50:24;;;;;;;2.42;1.25;;;20.40;54.30;;;;;;5028132;28;20468;-57
2021/11/21 12:53:07;;;;;;;3.35;1.45;;;20.40;54.30;;;;;;5038785;28;20044;-57